Latest Weather Observations for Mangalore

IDV60801

Issued at 9:35 pm EDT Friday 21 November 2014 (issued every 30 minutes, with the page automatically refreshed every 10 minutes)

About weather observations | Map of weather stations | Latest weather observations for VIC | Other Formats
Station Details ID: 088109 Name: MANGALORE AIRPORT Lat: -36.89 Lon: 145.19 Height: 140.8 m
Data from the previous 72 hours. | See also: Recent months at Mangalore
Date/Time
EDT
Temp
°C
App
Temp
°C
Dew
Point
Rel
Hum
%
Delta-T
°C
Wind Press
QNH
hPa
Press
MSL
hPa
Rain
since 9 am
mm
Dir
 
Spd
km/h
Gust
km/h
Spd
kts
Gust
kts
21/09:30pm 19.1 17.0 8.4 50 5.6 SE 9 11 5 6 1011.2 1011.0 0.2
21/09:00pm 20.8 18.2 7.8 43 6.8 SE 11 13 6 7 1010.9 1010.7 0.2
21/08:30pm 20.0 18.4 8.7 48 6.0 SW 7 9 4 5 1010.7 1010.5 0.2
21/08:00pm 23.0 21.5 9.0 41 7.6 S 7 7 4 4 1010.2 1010.0 0.2
21/07:30pm 25.5 23.4 6.7 30 9.9 S 7 11 4 6 1010.1 1009.9 0.2
21/07:00pm 26.0 23.9 6.6 29 10.2 S 7 9 4 5 1009.7 1009.5 0.2
21/06:30pm 26.3 24.3 6.9 29 10.3 S 7 11 4 6 1009.4 1009.1 0.2
21/06:00pm 26.4 24.5 7.4 30 10.2 SSW 7 17 4 9 1009.2 1008.9 0.2
21/05:30pm 26.0 22.7 8.0 32 9.7 S 15 19 8 10 1009.1 1008.8 0.2
21/05:00pm 26.4 24.3 8.4 32 9.8 S 9 17 5 9 1009.1 1008.8 0.2
21/04:30pm 25.5 23.7 7.1 31 9.7 S 6 9 3 5 1009.3 1009.0 0.2
21/04:00pm 25.2 22.8 6.9 31 9.6 WSW 9 13 5 7 1009.5 1009.3 0.2
21/03:30pm 25.2 22.5 7.3 32 9.5 WSW 11 20 6 11 1009.7 1009.5 0.2
21/03:00pm 25.7 22.9 8.7 34 9.3 SSW 13 22 7 12 1009.9 1009.7 0.2
21/02:30pm 24.7 22.7 8.6 36 8.7 SSW 9 20 5 11 1010.1 1009.9 0.2
21/02:00pm 22.9 19.8 7.4 37 8.1 SE 13 19 7 10 1010.4 1010.2 0.2
21/01:30pm 24.7 21.0 10.2 40 8.1 S 20 26 11 14 1010.5 1010.3 0.2
21/01:00pm 23.0 20.3 7.5 37 8.1 WSW 11 17 6 9 1010.7 1010.5 0.2
21/12:30pm 22.8 19.7 8.9 41 7.5 S 15 20 8 11 1010.7 1010.5 0.2
21/12:00pm 22.2 20.0 9.4 44 6.9 SSW 11 28 6 15 1010.7 1010.5 0.2
21/11:30am 21.8 19.8 10.3 48 6.3 S 11 19 6 10 1010.6 1010.4 0.2
21/11:00am 21.0 18.0 10.8 52 5.6 S 17 22 9 12 1010.8 1010.6 0.0
21/10:30am 20.1 17.4 11.8 59 4.6 S 17 30 9 16 1010.8 1010.6 0.0
21/10:00am 19.2 16.2 12.0 63 4.0 SSW 19 28 10 15 1010.8 1010.6 0.0
21/09:30am 18.7 14.7 11.8 64 3.8 S 24 33 13 18 1010.7 1010.5 0.0
21/09:00am 17.5 14.6 12.8 74 2.6 SSW 20 32 11 17 1010.7 1010.5 0.4
21/08:30am 17.6 16.0 13.9 79 2.1 SSW 15 20 8 11 1009.7 1009.5 0.4
21/08:00am 17.3 16.2 14.4 83 1.7 SW 13 17 7 9 1009.1 1008.8 0.4
21/07:30am 17.3 17.3 15.3 88 1.2 WSW 9 13 5 7 1008.8 1008.5 0.4
21/07:00am 16.4 16.9 15.6 95 0.5 WNW 7 11 4 6 1008.5 1008.2 0.4
21/06:30am 15.2 16.7 14.6 96 0.3 CALM 0 0 0 0 1008.3 1008.0 0.4
21/06:00am 15.1 16.0 14.1 94 0.6 WNW 2 7 1 4 1007.7 1007.4 0.4
21/05:30am 15.7 17.2 14.7 94 0.6 CALM 0 0 0 0 1007.5 1007.2 0.4
21/05:00am 15.8 16.3 15.0 95 0.5 WNW 6 6 3 3 1007.0 1006.7 0.4
21/04:30am 15.2 15.5 14.4 95 0.5 WNW 6 7 3 4 1006.7 1006.4 0.4
21/04:00am 14.9 14.1 14.1 95 0.5 WNW 11 13 6 7 1006.4 1006.1 0.4
21/03:30am 15.2 14.8 14.2 94 0.6 WNW 9 9 5 5 1006.5 1006.2 0.4
21/03:00am 15.5 15.6 14.4 93 0.6 WNW 7 7 4 4 1006.4 1006.1 0.4
21/02:30am 16.4 16.7 14.9 91 0.9 WNW 7 9 4 5 1005.9 1005.6 0.4
21/02:00am 15.9 16.3 14.8 93 0.6 WNW 6 7 3 4 1006.1 1005.8 0.4
21/01:30am 16.0 17.1 14.7 92 0.8 WNW 2 6 1 3 1006.5 1006.2 0.4
21/01:00am 16.3 17.6 15.2 93 0.6 WNW 2 6 1 3 1006.9 1006.6 0.4
21/12:30am 16.2 16.0 14.7 91 0.9 WNW 9 13 5 7 1007.2 1006.9 0.4
21/12:00am 16.8 17.3 15.0 89 1.1 WNW 6 9 3 5 1007.2 1006.9 0.4
 
Date/Time
EDT
Temp
°C
App
Temp
°C
Dew
Point
Rel
Hum
%
Delta-T
°C
Wind Press
QNH
hPa
Press
MSL
hPa
Rain
since 9 am
mm
Dir
 
Spd
km/h
Gust
km/h
Spd
kts
Gust
kts
20/11:30pm 17.3 17.2 14.9 86 1.4 WNW 9 13 5 7 1007.2 1006.9 0.4
20/11:00pm 17.6 17.8 15.8 89 1.1 WNW 9 13 5 7 1007.6 1007.3 0.4
20/10:30pm 18.4 18.2 15.8 85 1.5 WNW 11 13 6 7 1008.0 1007.7 0.4
20/10:00pm 19.3 19.7 15.4 78 2.3 WNW 7 9 4 5 1008.7 1008.4 0.4
20/09:30pm 19.8 18.7 14.4 71 3.2 WNW 13 22 7 12 1009.0 1008.7 0.4
20/09:00pm 20.5 19.8 14.2 67 3.7 W 11 17 6 9 1009.2 1008.9 0.0
20/08:30pm 21.3 21.9 13.2 60 4.7 WSW 2 6 1 3 1008.8 1008.5 0.0
20/08:00pm 22.3 21.1 12.8 55 5.5 WSW 11 15 6 8 1008.6 1008.3 0.0
20/07:30pm 23.0 20.8 12.0 50 6.3 WSW 15 20 8 11 1008.1 1007.8 0.0
20/07:00pm 23.9 19.1 11.6 46 7.0 W 28 44 15 24 1007.9 1007.6 0.0
20/06:54pm 24.1 18.4 11.1 44 7.3 W 32 44 17 24 1008.0 1007.7 0.0
20/06:30pm 25.0 21.8 11.9 44 7.5 SW 20 26 11 14 1007.7 1007.4 0.0
20/06:00pm 25.8 23.5 11.6 41 8.1 SSW 15 20 8 11 1007.0 1006.7 0.0
20/05:30pm 26.2 23.7 11.2 39 8.5 SSW 15 20 8 11 1006.6 1006.3 0.0
20/05:00pm 27.1 23.5 10.7 35 9.3 SSW 20 32 11 17 1006.4 1006.1 0.0
20/04:30pm 29.0 22.7 5.8 23 12.2 W 28 46 15 25 1006.2 1005.9 0.0
20/04:29pm 29.0 22.7 5.8 23 12.2 WSW 28 46 15 25 1006.1 1005.8 0.0
20/04:20pm 29.3 21.0 6.0 23 12.4 W 39 46 21 25 1006.1 1005.8 0.0
20/04:10pm 29.7 23.3 5.1 21 12.9 NW 28 46 15 25 1005.9 1005.6 0.0
20/04:00pm 29.5 22.3 4.9 21 12.9 N 32 44 17 24 1005.8 1005.5 0.0
20/03:34pm 29.8 23.4 5.1 21 12.9 NW 28 61 15 33 1005.6 1005.3 0.0
20/03:30pm 30.2 24.5 4.8 20 13.3 NW 24 32 13 17 1005.7 1005.4 0.0
20/03:18pm 30.8 24.3 4.5 19 13.7 NW 28 46 15 25 1005.6 1005.3 0.0
20/03:00pm 30.8 24.9 3.8 18 14.0 NW 24 35 13 19 1005.4 1005.1 0.0
20/02:30pm 32.0 25.6 3.1 16 14.8 NW 26 35 14 19 1005.4 1005.1 0.0
20/02:00pm 31.8 26.5 2.9 16 14.8 NNW 20 35 11 19 1005.8 1005.5 0.0
20/01:30pm 31.4 25.0 3.4 17 14.4 N 26 41 14 22 1006.0 1005.7 0.0
20/01:00pm 30.8 24.1 3.8 18 14.0 N 28 39 15 21 1006.7 1006.4 0.0
20/12:30pm 31.9 27.0 6.9 21 13.6 NNE 22 30 12 16 1007.4 1007.1 0.0
20/12:00pm 29.7 24.0 5.1 21 12.9 N 24 35 13 19 1007.8 1007.5 0.0
20/11:30am 31.0 25.4 5.4 20 13.6 N 24 39 13 21 1008.4 1008.1 0.0
20/11:00am 28.1 22.3 4.4 22 12.2 N 24 33 13 18 1008.8 1008.5 0.0
20/10:30am 29.1 23.5 5.2 22 12.5 N 24 33 13 18 1009.2 1008.9 0.0
20/10:00am 26.6 20.9 5.0 25 11.1 N 24 33 13 18 1009.6 1009.4 0.0
20/09:30am 24.5 19.1 4.3 27 10.1 NNE 22 32 12 17 1010.2 1010.0 0.0
20/09:00am 24.0 18.8 5.4 30 9.5 NNE 22 33 12 18 1010.5 1010.3 0.0
20/08:30am 19.5 18.4 10.5 56 4.9 N 7 11 4 6 1010.7 1010.5 0.0
20/08:00am 17.3 16.2 10.0 62 3.9 N 6 7 3 4 1010.7 1010.5 0.0
20/07:30am 16.0 14.9 10.1 68 3.1 N 6 7 3 4 1010.6 1010.4 0.0
20/07:00am 14.9 13.5 9.7 71 2.7 N 7 11 4 6 1010.6 1010.4 0.0
20/06:30am 14.2 12.7 9.2 72 2.6 N 7 9 4 5 1010.4 1010.2 0.0
20/06:00am 13.9 11.9 8.7 71 2.6 N 9 11 5 6 1010.0 1009.8 0.0
20/05:30am 14.1 12.8 9.1 72 2.6 N 6 7 3 4 1010.3 1010.1 0.0
20/05:00am 13.8 12.4 9.0 73 2.5 N 6 7 3 4 1010.0 1009.8 0.0
20/04:30am 13.4 12.2 9.5 77 2.0 N 6 7 3 4 1009.9 1009.7 0.0
20/04:00am 13.8 13.7 9.5 75 2.2 CALM 0 0 0 0 1010.0 1009.8 0.0
20/03:30am 13.5 13.3 9.2 75 2.2 CALM 0 0 0 0 1010.3 1010.1 0.0
20/03:00am 12.8 12.6 9.1 78 1.9 CALM 0 0 0 0 1010.3 1010.1 0.0
20/02:30am 12.8 12.4 8.3 74 2.2 CALM 0 0 0 0 1010.5 1010.3 0.0
20/02:00am 13.3 13.0 8.6 73 2.4 CALM 0 0 0 0 1010.5 1010.3 0.0
20/01:30am 13.0 12.5 7.7 70 2.6 CALM 0 0 0 0 1011.4 1011.1 0.0
20/01:00am 14.3 13.9 8.3 67 3.0 CALM 0 0 0 0 1011.9 1011.6 0.0
20/12:30am 13.2 10.9 7.6 69 2.8 N 9 9 5 5 1012.2 1011.9 0.0
20/12:00am 14.6 12.3 7.6 63 3.5 N 9 11 5 6 1012.4 1012.1 0.0
 
Date/Time
EDT
Temp
°C
App
Temp
°C
Dew
Point
Rel
Hum
%
Delta-T
°C
Wind Press
QNH
hPa
Press
MSL
hPa
Rain
since 9 am
mm
Dir
 
Spd
km/h
Gust
km/h
Spd
kts
Gust
kts
19/11:30pm 14.9 12.8 8.2 64 3.4 N 9 13 5 7 1012.9 1012.6 0.0
19/11:00pm 14.8 12.5 7.6 62 3.6 N 9 9 5 5 1013.1 1012.8 0.0
19/10:30pm 16.0 13.0 7.5 57 4.3 N 13 15 7 8 1012.9 1012.6 0.0
19/10:00pm 15.9 14.3 8.2 60 3.9 N 6 9 3 5 1013.5 1013.2 0.0
19/09:30pm 16.5 14.5 7.2 54 4.7 N 7 9 4 5 1013.0 1012.7 0.0
19/09:00pm 17.8 15.2 6.0 46 5.8 N 9 11 5 6 1013.0 1012.7 0.0
19/08:30pm 20.5 18.1 5.3 37 7.5 N 7 9 4 5 1013.1 1012.8 0.0
19/08:00pm 23.0 20.4 4.0 29 9.3 NNW 7 9 4 5 1013.3 1013.0 0.0
19/07:30pm 25.1 21.9 3.1 24 10.8 NNW 9 15 5 8 1013.2 1012.9 0.0
19/07:00pm 26.6 22.7 3.2 22 11.6 NNW 13 19 7 10 1013.1 1012.8 0.0
19/06:30pm 27.1 23.7 4.2 23 11.6 N 11 13 6 7 1013.1 1012.8 0.0
19/06:00pm 27.7 24.4 4.7 23 11.8 NNW 11 20 6 11 1013.1 1012.8 0.0
19/05:30pm 27.6 24.7 4.6 23 11.8 NNW 9 26 5 14 1013.4 1013.1 0.0
19/05:00pm 27.3 23.5 3.7 22 11.9 NNW 13 24 7 13 1013.9 1013.6 0.0
19/04:30pm 26.0 21.6 4.5 25 10.9 N 17 26 9 14 1014.1 1013.8 0.0
19/04:00pm 26.9 23.6 4.6 24 11.4 N 11 20 6 11 1014.6 1014.3 0.0
19/03:30pm 26.9 23.7 5.2 25 11.2 N 11 24 6 13 1015.1 1014.8 0.0
19/03:00pm 26.6 21.6 4.4 24 11.3 NNW 20 30 11 16 1015.6 1015.4 0.0
19/02:30pm 26.3 22.9 5.8 27 10.6 N 13 24 7 13 1015.8 1015.6 0.0
19/02:00pm 26.2 22.0 5.7 27 10.6 NNW 17 24 9 13 1016.2 1016.0 0.0
19/01:30pm 25.5 22.5 6.2 29 10.0 NNW 11 19 6 10 1016.8 1016.6 0.0
19/01:00pm 24.8 22.0 5.1 28 10.0 NNW 9 13 5 7 1017.4 1017.2 0.0
19/12:30pm 24.0 20.7 4.4 28 9.8 NW 11 19 6 10 1017.8 1017.6 0.0
19/12:00pm 23.6 20.6 6.0 32 9.0 WSW 11 19 6 10 1018.3 1018.1 0.0
19/11:30am 23.1 19.8 4.6 30 9.2 WSW 11 20 6 11 1018.8 1018.5 0.0
19/11:00am 22.2 19.8 6.8 37 7.9 SW 9 15 5 8 1019.1 1018.8 0.0
19/10:30am 20.8 19.4 9.7 49 6.0 SW 7 11 4 6 1019.3 1019.0 0.0
19/10:00am 18.7 16.8 8.9 53 5.1 SW 9 13 5 7 1019.3 1019.0 0.0
19/09:30am 17.3 15.9 9.5 60 4.1 SW 7 11 4 6 1019.7 1019.4 0.0
19/09:00am 16.0 13.8 9.4 65 3.4 SSW 11 15 6 8 1019.6 1019.3 0.0
19/08:30am 14.4 11.4 9.4 72 2.6 SSW 15 20 8 11 1019.7 1019.4 0.0
19/08:00am 12.8 9.9 9.6 81 1.6 SSW 15 20 8 11 1019.8 1019.5 0.0
19/07:30am 11.4 8.4 9.1 86 1.2 SSW 15 19 8 10 1019.6 1019.3 0.0
19/07:00am 10.3 6.8 8.7 90 0.8 SSW 17 20 9 11 1019.4 1019.1 0.0
19/06:30am 9.6 6.0 8.2 91 0.7 SSW 17 22 9 12 1019.1 1018.8 0.0
19/06:00am 9.7 6.8 8.3 91 0.7 SSW 13 20 7 11 1019.1 1018.8 0.0
19/05:30am 9.7 6.8 8.1 90 0.8 SSW 13 17 7 9 1019.0 1018.7 0.0
19/05:00am 9.9 7.0 8.2 89 0.8 SW 13 17 7 9 1019.0 1018.7 0.0
19/04:30am 10.0 7.5 8.1 88 0.9 SSW 11 15 6 8 1019.1 1018.8 0.0
19/04:00am 10.3 7.0 8.2 87 1.0 SSW 15 19 8 10 1019.3 1019.0 0.0
19/03:30am 10.7 7.8 8.3 85 1.2 SSW 13 19 7 10 1019.6 1019.3 0.0
19/03:00am 11.2 7.6 8.4 83 1.4 SSW 17 24 9 13 1019.8 1019.5 0.0
19/02:30am 11.1 8.4 8.8 86 1.1 SSW 13 19 7 10 1020.0 1019.7 0.0
19/02:00am 11.4 8.4 9.1 86 1.2 SSW 15 19 8 10 1020.3 1020.0 0.0
19/01:30am 11.6 9.0 9.2 85 1.2 SSW 13 19 7 10 1020.5 1020.2 0.0
19/01:00am 11.8 9.1 9.0 83 1.4 SSW 13 17 7 9 1020.8 1020.5 0.0
19/12:30am 12.3 9.3 9.1 81 1.6 SSW 15 20 8 11 1020.9 1020.6 0.0
19/12:00am 12.5 9.8 8.8 78 1.9 S 13 17 7 9 1021.0 1020.7 0.0
 
Date/Time
EDT
Temp
°C
App
Temp
°C
Dew
Point
Rel
Hum
%
Delta-T
°C
Wind Press
QNH
hPa
Press
MSL
hPa
Rain
since 9 am
mm
Dir
 
Spd
km/h
Gust
km/h
Spd
kts
Gust
kts
18/11:30pm 13.3 10.4 8.2 71 2.5 S 13 17 7 9 1021.1 1020.8 0.0
18/11:00pm 14.1 10.6 7.2 63 3.4 SSW 15 20 8 11 1021.2 1020.9 0.0
18/10:30pm 15.1 11.6 7.2 59 3.9 S 15 20 8 11 1021.1 1020.8 0.0
18/10:00pm 15.8 11.5 7.0 56 4.4 S 19 24 10 13 1020.9 1020.6 0.0

Other Formats:

Comma delimited format used in spreadsheet applications
http://www.bom.gov.au/fwo/IDV60801/IDV60801.94874.axf

JavaScript Object Notation format (JSON) in row-major order
http://www.bom.gov.au/fwo/IDV60801/IDV60801.94874.json